Time;durP1;ratioP1;P1;durP2;ratioP2;P2;SDS_P1;SDS_P2;PMS_P1;PMS_P2;Temp;Humidity;BMP_temperature;BMP_pressure;BME280_temperature;BME280_humidity;BME280_pressure;Samples;Min_cycle;Max_cycle;Signal;HPM_P1;HPM_P2
2021/06/18 00:00:27;;;;;;;4.57;1.98;;;21.70;99.90;;;21.11;67.02;100726.44;5071084;28;20028;-54
2021/06/18 00:02:54;;;;;;;3.47;1.85;;;21.60;99.90;;;21.17;66.41;100726.41;5071002;28;20101;-54
2021/06/18 00:05:20;;;;;;;3.42;1.88;;;21.60;99.90;;;21.16;66.85;100731.91;5053074;28;20056;-54
2021/06/18 00:07:48;;;;;;;5.97;1.55;;;21.60;99.90;;;21.05;67.66;100728.06;5071123;28;20115;-51
2021/06/18 00:10:18;;;;;;;2.53;2.00;;;21.60;99.90;;;20.98;68.12;100727.25;5070902;28;20075;-53
2021/06/18 00:12:44;;;;;;;7.53;2.28;;;21.50;99.90;;;20.97;68.04;100719.50;5053396;28;20036;-55
2021/06/18 00:15:12;;;;;;;6.10;2.45;;;21.50;99.90;;;21.03;67.83;100724.00;5070807;28;20025;-55
2021/06/18 00:17:39;;;;;;;4.85;1.85;;;21.50;99.90;;;21.12;67.15;100720.09;5070576;28;20626;-55
2021/06/18 00:20:08;;;;;;;4.97;1.83;;;21.50;99.90;;;21.19;66.97;100719.06;5070993;28;20458;-56
2021/06/18 00:22:35;;;;;;;9.57;2.47;;;21.60;99.90;;;21.22;66.47;100722.38;5052487;28;20032;-54
2021/06/18 00:25:01;;;;;;;4.45;1.80;;;21.70;99.90;;;21.25;66.15;100717.47;5070802;28;20411;-55
2021/06/18 00:27:27;;;;;;;4.20;2.40;;;21.70;99.90;;;21.28;65.75;100702.97;5070844;28;20037;-55
2021/06/18 00:29:53;;;;;;;2.35;1.70;;;21.70;99.90;;;21.30;65.86;100703.56;5071067;28;20059;-56
2021/06/18 00:32:20;;;;;;;4.97;2.20;;;21.70;99.90;;;21.33;65.58;100708.44;5070574;28;20036;-56
2021/06/18 00:34:46;;;;;;;4.05;2.30;;;21.80;99.90;;;21.37;65.40;100699.88;5070701;28;20097;-56
2021/06/18 00:37:13;;;;;;;3.65;2.25;;;21.80;99.90;;;21.40;65.13;100698.63;5070786;28;20050;-52
2021/06/18 00:39:40;;;;;;;4.10;2.22;;;21.80;99.90;;;21.39;65.11;100695.19;5070336;28;20230;-55
2021/06/18 00:42:07;;;;;;;3.45;2.03;;;21.90;99.90;;;21.35;65.59;100699.25;5070120;28;20129;-55
2021/06/18 00:44:33;;;;;;;4.38;2.10;;;21.80;99.90;;;21.32;66.02;100702.34;5070644;28;20168;-53
2021/06/18 00:47:00;;;;;;;7.93;2.70;;;21.80;99.90;;;21.26;65.99;100697.91;5052239;28;20287;-55
2021/06/18 00:49:26;;;;;;;4.53;2.00;;;21.80;99.90;;;21.22;66.27;100706.47;5070336;28;20387;-55
2021/06/18 00:51:53;;;;;;;2.40;2.20;;;21.70;99.90;;;21.20;66.37;100696.03;5051988;28;20040;-54
2021/06/18 00:54:29;;;;;;;5.32;2.33;;;21.70;99.90;;;21.19;66.19;100699.72;5070162;28;20119;-52
2021/06/18 00:56:59;;;;;;;5.50;1.85;;;21.70;99.90;;;21.15;66.26;100695.84;5070204;28;20080;-53
2021/06/18 00:59:27;;;;;;;7.10;2.17;;;21.60;99.90;;;21.12;66.13;100698.91;5051756;28;20043;-55
2021/06/18 01:01:54;;;;;;;8.38;2.47;;;21.60;99.90;;;21.08;66.14;100689.75;5070261;28;20037;-54
2021/06/18 01:04:25;;;;;;;5.15;2.28;;;21.60;99.90;;;21.05;66.30;100684.88;5052153;28;20067;-54
2021/06/18 01:07:15;;;;;;;2.67;1.42;;;21.50;99.90;;;21.02;66.24;100687.94;5035447;28;20040;-54
2021/06/18 01:10:18;;;;;;;2.33;1.90;;;21.50;99.90;;;21.11;65.27;100691.97;5069894;28;20285;-53
2021/06/18 01:13:15;;;;;;;3.13;1.83;;;21.50;99.90;;;21.16;65.55;100686.88;5066930;28;20052;-53
2021/06/18 01:15:59;;;;;;;3.35;1.50;;;21.60;99.90;;;21.19;64.79;100686.47;5069812;28;20495;-55
2021/06/18 01:19:25;;;;;;;5.88;2.15;;;21.60;99.90;;;21.26;64.09;100684.66;5069996;28;20083;-53
2021/06/18 01:22:05;;;;;;;3.63;1.60;;;21.80;99.90;;;21.28;63.17;100679.09;5069438;28;20369;-54
2021/06/18 01:24:49;;;;;;;6.90;2.20;;;21.70;99.90;;;21.24;63.15;100668.13;5069488;28;20118;-52
2021/06/18 01:27:52;;;;;;;2.47;1.67;;;21.70;99.90;;;21.23;63.43;100671.81;5069704;28;20041;-54
2021/06/18 01:30:22;;;;;;;3.60;1.60;;;21.70;99.90;;;21.24;63.41;100668.13;5051151;28;20045;-55
2021/06/18 01:33:03;;;;;;;4.88;1.90;;;21.70;99.90;;;21.24;63.63;100673.44;5051789;28;20448;-53
2021/06/18 01:35:39;;;;;;;3.05;1.88;;;21.70;99.90;;;21.25;63.08;100668.94;5069448;28;20399;-51
2021/06/18 01:38:09;;;;;;;3.13;2.13;;;21.70;99.90;;;21.19;64.28;100659.97;5069351;28;20526;-50
2021/06/18 01:40:38;;;;;;;5.75;2.03;;;21.70;99.90;;;21.07;65.86;100661.63;5069428;28;20431;-55
2021/06/18 01:43:07;;;;;;;7.63;2.08;;;21.60;99.90;;;20.88;66.96;100658.81;5051129;28;20377;-54
2021/06/18 01:45:37;;;;;;;5.68;2.33;;;21.50;99.90;;;20.77;67.64;100663.94;5069355;28;20027;-55
2021/06/18 01:48:05;;;;;;;8.52;2.25;;;21.30;99.90;;;20.66;68.50;100661.94;5069433;28;20130;-53
2021/06/18 01:50:33;;;;;;;4.30;2.38;;;21.20;99.90;;;20.59;68.75;100656.63;5069112;28;20035;-55
2021/06/18 01:53:15;;;;;;;3.38;2.13;;;21.20;99.90;;;20.59;69.13;100661.13;5068995;28;20056;-54
2021/06/18 01:55:43;;;;;;;4.35;2.22;;;21.10;99.90;;;20.55;68.96;100663.34;5051702;28;20036;-54
2021/06/18 01:58:12;;;;;;;5.95;2.10;;;21.10;99.90;;;20.58;68.47;100651.56;5051022;28;20029;-53
2021/06/18 02:00:45;;;;;;;3.65;2.08;;;21.10;99.90;;;20.54;68.13;100657.25;5050902;28;20028;-53
2021/06/18 02:03:17;;;;;;;3.45;2.22;;;21.10;99.90;;;20.59;67.52;100648.69;5068976;28;20530;-51
2021/06/18 02:05:45;;;;;;;6.05;1.90;;;21.10;99.90;;;20.64;66.85;100651.53;5050678;28;20102;-55
2021/06/18 02:08:14;;;;;;;3.15;2.35;;;21.10;99.90;;;20.60;66.98;100655.63;5050793;28;20139;-55
2021/06/18 02:10:44;;;;;;;3.13;2.38;;;21.10;99.90;;;20.59;67.63;100661.94;5050537;28;20033;-54
2021/06/18 02:13:12;;;;;;;7.90;2.13;;;21.10;99.90;;;20.49;68.19;100658.88;5068188;28;20024;-54
2021/06/18 02:15:41;;;;;;;5.50;2.30;;;21.00;99.90;;;20.46;68.44;100652.16;5068498;28;20515;-55
2021/06/18 02:18:22;;;;;;;6.00;2.30;;;21.00;99.90;;;20.41;68.73;100654.59;5068806;28;20028;-52
2021/06/18 02:20:52;;;;;;;2.35;2.15;;;20.90;99.90;;;20.38;68.54;100652.38;5050991;28;20036;-55
2021/06/18 02:23:25;;;;;;;3.70;2.20;;;20.90;99.90;;;20.30;69.11;100657.03;5068582;28;20048;-54
2021/06/18 02:25:51;;;;;;;4.35;2.15;;;20.80;99.90;;;20.25;69.24;100656.84;5051132;28;20039;-55
2021/06/18 02:28:21;;;;;;;2.97;2.22;;;20.80;99.90;;;20.27;68.72;100657.44;5050190;28;20135;-54
2021/06/18 02:30:49;;;;;;;4.70;2.75;;;20.80;99.90;;;20.25;68.07;100660.28;5049995;28;20477;-55
2021/06/18 02:33:15;;;;;;;4.28;2.30;;;20.80;99.90;;;20.28;67.54;100657.25;5050673;28;20029;-54
2021/06/18 02:35:44;;;;;;;3.55;2.15;;;20.80;99.90;;;20.28;67.18;100667.81;5068455;28;20514;-53
2021/06/18 02:38:11;;;;;;;3.10;1.83;;;20.70;99.90;;;20.30;66.76;100671.09;5068239;28;20043;-54
2021/06/18 02:43:13;;;;;;;;;;;20.80;99.90;;;20.33;67.73;100664.53;4964981;22;20064;-55
2021/06/18 02:45:39;;;;;;;;;;;20.80;99.90;;;20.17;69.89;100665.78;5088602;28;19920;-52
2021/06/18 02:48:40;;;;;;;;;;;20.70;99.90;;;19.97;70.38;100673.66;5088547;28;19916;-51
2021/06/18 02:51:19;;;;;;;5.93;3.03;;;20.60;99.90;;;19.73;69.86;100675.06;5053527;28;20424;-53
2021/06/18 02:53:57;;;;;;;5.88;2.95;;;20.40;99.90;;;19.83;69.54;100669.41;5088367;28;20207;-52
2021/06/18 02:56:45;;;;;;;9.57;2.70;;;20.30;99.90;;;19.96;69.27;100674.69;5088148;28;20052;-51
2021/06/18 02:59:35;;;;;;;3.95;2.35;;;20.40;99.90;;;19.97;69.33;100671.03;5088143;28;20418;-51
2021/06/18 03:02:03;;;;;;;2.53;1.67;;;20.50;99.90;;;19.92;69.28;100662.88;5088074;28;20074;-53
2021/06/18 03:04:36;;;;;;;3.45;2.53;;;20.40;99.90;;;19.87;70.30;100668.75;5069688;28;20070;-52
2021/06/18 03:07:14;;;;;;;5.15;2.50;;;20.40;99.90;;;19.83;70.77;100666.75;5087854;28;20178;-53
2021/06/18 03:09:49;;;;;;;7.07;2.67;;;20.40;99.90;;;19.79;71.56;100661.03;5070103;28;20032;-52
2021/06/18 03:12:20;;;;;;;6.72;2.75;;;20.30;99.90;;;19.74;72.35;100662.66;5069315;28;20058;-51
2021/06/18 03:14:48;;;;;;;2.35;2.15;;;20.30;99.90;;;19.69;71.85;100667.72;5069793;28;20142;-52
2021/06/18 03:17:18;;;;;;;3.35;2.25;;;20.20;99.90;;;19.67;72.20;100669.75;5087879;28;20051;-51
2021/06/18 03:19:57;;;;;;;8.10;2.22;;;20.20;99.90;;;19.64;72.15;100673.59;5069492;28;20032;-55
2021/06/18 03:22:25;;;;;;;3.15;2.55;;;20.10;99.90;;;19.63;71.18;100676.44;5087764;28;20032;-52
2021/06/18 03:24:54;;;;;;;5.70;2.30;;;20.10;99.90;;;19.72;70.41;100673.44;5068700;28;20040;-51
2021/06/18 03:27:22;;;;;;;3.80;2.42;;;20.20;99.90;;;19.80;69.76;100675.88;5069360;28;20085;-50
2021/06/18 03:29:50;;;;;;;2.95;1.92;;;20.30;99.90;;;19.86;69.24;100677.72;5087559;28;20386;-53
2021/06/18 03:32:18;;;;;;;2.40;1.88;;;20.30;99.90;;;19.91;69.00;100678.94;5069662;28;20038;-53
2021/06/18 03:34:45;;;;;;;3.10;2.03;;;20.40;99.90;;;19.96;68.49;100677.34;5069578;28;20483;-52
2021/06/18 03:37:12;;;;;;;2.28;1.73;;;20.40;99.90;;;20.09;67.61;100680.00;5087596;28;20054;-54
2021/06/18 03:39:41;;;;;;;6.03;2.40;;;20.50;99.90;;;20.17;67.36;100681.66;5069290;28;20043;-55
2021/06/18 03:42:07;;;;;;;5.90;2.78;;;20.60;99.90;;;20.18;67.82;100681.44;5068735;28;20044;-51
2021/06/18 03:44:33;;;;;;;3.22;2.92;;;20.70;99.90;;;20.26;68.02;100684.91;5069078;28;20036;-53
2021/06/18 03:47:01;;;;;;;9.43;3.72;;;20.70;99.90;;;20.24;68.43;100679.81;5087512;28;20134;-55
2021/06/18 03:49:29;;;;;;;4.10;2.60;;;20.80;99.90;;;20.15;69.13;100689.78;5069189;28;20032;-53
2021/06/18 03:51:55;;;;;;;5.88;2.92;;;20.70;99.90;;;20.09;69.62;100689.78;5087117;28;20501;-55
2021/06/18 03:54:23;;;;;;;10.25;3.05;;;20.70;99.90;;;20.07;69.72;100692.63;5087123;28;20038;-55
2021/06/18 03:56:50;;;;;;;5.28;3.22;;;20.60;99.90;;;20.12;69.43;100687.53;5069265;28;20036;-53
2021/06/18 03:59:21;;;;;;;9.73;3.45;;;20.70;99.90;;;20.17;69.49;100695.69;5069085;28;20458;-55
2021/06/18 04:01:55;;;;;;;6.50;2.83;;;20.70;99.90;;;20.28;68.40;100693.47;5087100;28;20032;-53
2021/06/18 04:04:26;;;;;;;5.60;2.63;;;20.80;99.90;;;20.49;67.76;100696.75;5087127;28;20070;-52
2021/06/18 04:06:52;;;;;;;5.20;2.80;;;20.90;99.90;;;21.08;65.94;100697.69;5087035;28;20155;-55
2021/06/18 04:09:19;;;;;;;4.25;2.03;;;21.60;99.90;;;21.71;64.29;100706.69;5068497;28;20464;-55
2021/06/18 04:11:45;;;;;;;3.30;2.20;;;22.50;99.90;;;22.54;62.50;100701.25;5068554;28;20052;-54
2021/06/18 04:14:14;;;;;;;6.35;2.03;;;23.40;99.90;;;22.67;62.08;100695.84;5085406;28;20134;-52
2021/06/18 04:16:40;;;;;;;8.82;2.03;;;24.10;98.80;;;23.07;61.67;100692.81;5087133;28;20132;-53
2021/06/18 04:19:09;;;;;;;4.57;2.45;;;24.80;97.10;;;22.98;61.88;100696.78;5086877;28;20402;-55
2021/06/18 04:21:41;;;;;;;3.08;2.05;;;24.90;96.20;;;23.46;59.88;100684.38;5087004;28;20028;-55
2021/06/18 04:24:09;;;;;;;5.90;2.20;;;25.00;95.30;;;24.01;57.68;100686.09;5069438;28;20047;-56
2021/06/18 04:26:35;;;;;;;4.80;2.03;;;25.60;93.50;;;24.78;55.38;100677.06;5086887;28;20021;-56
2021/06/18 04:29:01;;;;;;;3.60;1.65;;;26.50;91.40;;;24.73;54.74;100676.13;5087100;28;20089;-55
2021/06/18 04:31:27;;;;;;;4.18;1.67;;;26.70;89.70;;;25.19;53.61;100674.47;5087089;28;20063;-56
2021/06/18 04:33:52;;;;;;;3.75;1.80;;;27.10;87.60;;;25.69;52.25;100682.69;5086979;28;20044;-55
2021/06/18 04:36:19;;;;;;;1.90;1.45;;;27.50;83.00;;;25.74;51.56;100698.78;5088037;28;20047;-52
2021/06/18 04:38:45;;;;;;;4.55;1.77;;;27.80;80.60;;;25.34;52.49;100696.94;5072550;28;20114;-56
2021/06/18 04:41:11;;;;;;;3.95;1.80;;;27.40;80.00;;;25.23;52.69;100695.09;5090617;28;20028;-56
2021/06/18 04:43:37;;;;;;;2.38;1.50;;;27.40;78.60;;;25.38;52.16;100698.09;5090363;28;20055;-56
2021/06/18 04:46:03;;;;;;;3.28;1.73;;;27.60;78.10;;;25.70;51.00;100692.31;5072010;28;20122;-55
2021/06/18 04:48:29;;;;;;;2.63;1.60;;;27.70;76.60;;;25.78;51.11;100691.94;5090171;28;20059;-55
2021/06/18 04:50:56;;;;;;;7.63;1.52;;;27.80;76.40;;;25.04;53.17;100693.66;5088545;28;20040;-56
2021/06/18 04:53:22;;;;;;;5.82;1.63;;;27.30;77.20;;;24.21;55.74;100696.44;5090427;28;20087;-52
2021/06/18 04:55:48;;;;;;;5.75;1.90;;;26.70;80.00;;;23.21;58.66;100707.56;5090493;28;20036;-52
2021/06/18 04:58:14;;;;;;;3.05;2.00;;;25.30;85.10;;;22.74;60.32;100695.75;5090313;28;20406;-55
2021/06/18 05:00:40;;;;;;;5.03;2.05;;;24.40;89.60;;;23.80;57.75;100706.03;5090077;28;20115;-54
2021/06/18 05:03:06;;;;;;;2.85;2.00;;;24.90;89.80;;;23.21;59.04;100712.88;5090173;28;20463;-56
2021/06/18 05:05:32;;;;;;;5.40;2.03;;;24.80;90.20;;;23.33;58.96;100702.31;5089787;28;20042;-56
2021/06/18 05:07:58;;;;;;;4.85;2.10;;;24.60;90.70;;;22.80;60.83;100700.22;5090557;28;20552;-57
2021/06/18 05:10:25;;;;;;;3.22;1.92;;;24.10;91.90;;;22.61;61.69;100709.16;5090070;28;20028;-53
2021/06/18 05:12:52;;;;;;;3.42;1.67;;;23.90;93.00;;;23.38;59.35;100702.47;5071574;28;20055;-55
2021/06/18 05:15:19;;;;;;;3.90;1.92;;;24.50;92.40;;;24.16;56.60;100705.91;5090009;28;20356;-52
2021/06/18 05:17:45;;;;;;;3.85;1.85;;;25.80;89.30;;;25.08;54.57;100711.56;5089987;28;20376;-55
2021/06/18 05:20:12;;;;;;;4.53;1.80;;;26.70;85.80;;;26.02;51.90;100705.94;5089653;28;20491;-56
2021/06/18 05:22:39;;;;;;;4.10;1.80;;;27.90;80.90;;;26.19;51.08;100709.47;5089708;28;20077;-56
2021/06/18 05:25:06;;;;;;;2.97;1.27;;;28.60;76.30;;;26.83;49.86;100709.97;5089899;28;20043;-52
2021/06/18 05:27:32;;;;;;;2.20;1.42;;;29.30;74.10;;;27.78;47.43;100700.75;5071234;28;20461;-56
2021/06/18 05:29:58;;;;;;;1.60;1.45;;;30.30;70.20;;;27.73;47.04;100709.53;5088134;28;20399;-55
2021/06/18 05:32:25;;;;;;;2.45;1.50;;;30.40;67.70;;;28.31;45.46;100704.47;5089891;28;20028;-54
2021/06/18 05:34:51;;;;;;;3.53;1.55;;;31.00;65.50;;;28.73;44.33;100702.59;5089831;28;20056;-54
2021/06/18 05:37:17;;;;;;;2.30;1.75;;;31.60;63.30;;;29.09;43.45;100694.78;5089663;28;20024;-54
2021/06/18 05:39:44;;;;;;;1.45;1.35;;;32.20;60.50;;;29.70;42.08;100705.75;5070892;28;20044;-57
2021/06/18 05:42:10;;;;;;;1.70;1.45;;;32.80;58.20;;;29.40;42.18;100698.38;5089247;28;20044;-56
2021/06/18 05:44:37;;;;;;;3.17;1.50;;;32.50;57.00;;;29.19;41.95;100705.56;5089090;28;20031;-56
2021/06/18 05:47:03;;;;;;;2.75;1.70;;;32.10;57.60;;;29.37;42.40;100697.00;5088987;28;20420;-49
2021/06/18 05:49:29;;;;;;;2.92;1.45;;;32.40;57.30;;;29.80;41.28;100700.38;5088902;28;20036;-53
2021/06/18 05:51:55;;;;;;;5.72;1.60;;;32.60;57.20;;;30.20;40.99;100699.66;5089145;28;20059;-54
2021/06/18 05:54:21;;;;;;;1.58;1.33;;;33.00;56.70;;;29.82;41.60;100703.59;5089066;28;20048;-55
2021/06/18 05:56:47;;;;;;;3.70;1.30;;;33.30;55.70;;;29.75;42.27;100710.31;5088822;28;20570;-54
2021/06/18 05:59:13;;;;;;;6.82;1.52;;;33.20;55.50;;;30.34;40.82;100702.56;5088891;28;20071;-54
2021/06/18 06:01:39;;;;;;;1.85;1.63;;;33.40;55.50;;;30.80;40.55;100697.16;5089017;28;20072;-56
2021/06/18 06:04:05;;;;;;;3.47;1.23;;;34.00;55.00;;;31.39;39.18;100699.13;5088946;28;20105;-57
2021/06/18 06:06:31;;;;;;;2.92;1.70;;;34.60;53.50;;;30.37;40.95;100705.53;5070593;28;20028;-55
2021/06/18 06:08:57;;;;;;;2.65;1.00;;;33.90;54.20;;;30.30;40.72;100701.50;5089013;28;20155;-55
2021/06/18 06:11:25;;;;;;;6.25;1.60;;;33.70;53.80;;;30.69;40.13;100694.50;5070534;28;20097;-55
2021/06/18 06:13:58;;;;;;;2.65;1.50;;;33.80;54.20;;;30.25;41.07;100699.63;5088752;28;20443;-54
2021/06/18 06:16:24;;;;;;;2.65;1.60;;;33.70;53.80;;;29.86;41.54;100698.50;5088496;28;20051;-58
2021/06/18 06:18:50;;;;;;;2.05;1.40;;;33.40;54.30;;;30.48;40.97;100695.59;5088736;28;20040;-54
2021/06/18 06:21:18;;;;;;;5.97;1.95;;;33.70;54.30;;;30.98;39.74;100697.38;5083819;28;20028;-53
2021/06/18 06:23:44;;;;;;;2.72;1.73;;;34.40;53.00;;;31.75;38.54;100703.22;5052861;28;20032;-56
2021/06/18 06:26:11;;;;;;;2.50;1.55;;;35.40;51.50;;;31.64;38.89;100707.06;5088484;28;20028;-54
2021/06/18 06:28:37;;;;;;;4.18;1.77;;;35.80;50.50;;;31.28;39.09;100709.13;5088283;28;20517;-52
2021/06/18 06:31:06;;;;;;;3.35;1.90;;;35.30;51.30;;;31.04;39.58;100711.63;5087939;28;20027;-56
2021/06/18 06:33:32;;;;;;;5.10;2.40;;;35.00;51.10;;;31.60;38.57;100712.19;5088639;28;20090;-56
2021/06/18 06:35:58;;;;;;;3.88;2.17;;;35.00;51.40;;;31.03;38.52;100718.09;5088254;28;20028;-54
2021/06/18 06:38:24;;;;;;;2.90;2.00;;;34.40;51.40;;;30.74;39.82;100719.75;5088084;28;20547;-55
2021/06/18 06:40:51;;;;;;;4.60;1.70;;;33.50;53.60;;;29.83;41.61;100724.00;5087983;28;20107;-57
2021/06/18 06:43:17;;;;;;;6.10;1.88;;;32.30;55.70;;;28.47;44.73;100729.47;5087650;28;20083;-50
2021/06/18 06:45:43;;;;;;;3.47;2.05;;;30.70;58.40;;;27.99;45.68;100734.66;5087655;28;20032;-59
2021/06/18 06:48:09;;;;;;;4.32;1.83;;;29.80;60.50;;;27.62;46.69;100742.59;5087937;28;20032;-58
2021/06/18 06:50:35;;;;;;;2.92;1.83;;;29.40;61.60;;;28.31;45.42;100733.94;5087792;28;20084;-56
2021/06/18 06:53:01;;;;;;;3.30;1.58;;;29.60;61.80;;;28.46;45.06;100736.72;5088194;28;20028;-56
2021/06/18 06:55:27;;;;;;;3.95;1.90;;;29.80;61.90;;;27.81;46.65;100740.38;5087884;28;20078;-56
2021/06/18 06:57:53;;;;;;;4.10;1.40;;;29.20;63.20;;;27.33;47.81;100738.47;5087874;28;20070;-53
2021/06/18 07:00:20;;;;;;;3.30;1.35;;;28.70;64.80;;;27.16;48.48;100735.03;5087978;28;20803;-55
2021/06/18 07:02:46;;;;;;;3.05;1.63;;;28.20;66.00;;;27.07;48.66;100737.31;5069720;28;20032;-56
2021/06/18 07:05:13;;;;;;;2.75;1.80;;;28.10;66.80;;;27.53;47.79;100740.56;5069705;28;20032;-54
2021/06/18 07:07:39;;;;;;;3.53;1.75;;;28.40;66.40;;;28.02;46.47;100742.19;5086033;28;20124;-54
2021/06/18 07:10:07;;;;;;;4.30;1.90;;;29.00;65.20;;;28.14;45.97;100733.19;5088180;28;20097;-58
2021/06/18 07:12:33;;;;;;;3.03;1.73;;;28.90;65.40;;;27.75;46.81;100746.75;5069148;28;20429;-55
2021/06/18 07:14:59;;;;;;;3.17;1.90;;;28.70;65.70;;;27.74;46.68;100750.47;5087352;28;20043;-52
2021/06/18 07:17:25;;;;;;;5.57;2.53;;;28.50;66.10;;;27.41;47.47;100746.84;5087504;28;20127;-51
2021/06/18 07:19:54;;;;;;;4.43;1.83;;;28.40;66.10;;;27.72;46.65;100742.69;5087392;28;20036;-53
2021/06/18 07:22:21;;;;;;;4.93;2.00;;;28.40;66.50;;;28.20;45.23;100742.91;5087259;28;20381;-52
2021/06/18 07:24:49;;;;;;;3.58;2.05;;;29.00;64.50;;;28.39;43.69;100739.59;5087334;28;20043;-51
2021/06/18 07:27:16;;;;;;;4.18;2.20;;;29.20;63.20;;;28.62;43.10;100735.78;5087109;28;20103;-51
2021/06/18 07:29:43;;;;;;;6.50;2.80;;;29.50;62.00;;;28.85;42.77;100747.19;5066709;28;20044;-54
2021/06/18 07:32:12;;;;;;;3.15;2.38;;;29.80;62.00;;;29.60;41.51;100754.84;5086204;28;20404;-52
2021/06/18 07:34:39;;;;;;;5.15;2.28;;;30.20;61.60;;;29.85;40.78;100756.78;5094996;28;20043;-57
2021/06/18 07:37:05;;;;;;;4.78;2.10;;;30.70;60.20;;;29.75;41.10;100751.41;5087551;28;20408;-38
2021/06/18 07:39:31;;;;;;;18.83;3.15;;;30.70;60.20;;;29.86;40.63;100762.97;5087109;28;20032;-38
2021/06/18 07:41:58;;;;;;;3.33;2.50;;;30.90;59.50;;;30.07;40.17;100758.47;5086829;28;20060;-39
2021/06/18 07:44:24;;;;;;;3.67;1.98;;;31.00;59.10;;;30.01;40.23;100761.16;5087772;28;20457;-38
2021/06/18 07:46:50;;;;;;;5.72;2.45;;;31.10;58.50;;;29.92;40.08;100760.03;5087445;28;20044;-41
2021/06/18 07:49:16;;;;;;;6.32;1.98;;;31.10;58.40;;;29.91;39.97;100761.09;5087395;28;20141;-55
2021/06/18 07:51:42;;;;;;;5.68;2.00;;;31.10;58.40;;;29.73;40.97;100758.91;5087373;28;20426;-55
2021/06/18 07:54:08;;;;;;;4.63;2.25;;;30.70;59.20;;;29.60;41.80;100759.41;5087307;28;20119;-55
2021/06/18 07:56:40;;;;;;;2.55;1.90;;;30.70;60.10;;;29.33;42.15;100759.53;5087111;28;20032;-54
2021/06/18 07:59:06;;;;;;;3.05;2.13;;;30.40;60.20;;;29.72;41.72;100765.34;5068795;28;20035;-52
2021/06/18 08:01:32;;;;;;;3.55;2.17;;;30.40;61.00;;;30.07;40.84;100763.84;5087246;28;20094;-48
2021/06/18 08:03:58;;;;;;;5.57;2.13;;;30.70;61.00;;;29.90;40.70;100764.84;5086991;28;20028;-55
2021/06/18 08:06:24;;;;;;;3.78;1.90;;;30.80;59.40;;;30.29;40.44;100767.06;5087461;28;20032;-51
2021/06/18 08:08:50;;;;;;;4.55;2.40;;;30.90;59.90;;;30.52;40.35;100771.13;5087060;28;20084;-54
2021/06/18 08:11:16;;;;;;;2.63;1.88;;;31.30;59.70;;;30.64;40.14;100767.13;5088272;28;20032;-53
2021/06/18 08:13:42;;;;;;;4.88;2.50;;;31.60;58.70;;;30.29;40.62;100772.44;5091147;28;20047;-53
2021/06/18 08:16:08;;;;;;;3.15;2.15;;;31.30;59.30;;;30.05;40.63;100766.78;5090764;28;20340;-54
2021/06/18 08:18:38;;;;;;;3.38;2.42;;;31.10;59.20;;;29.82;41.27;100768.03;5090997;28;20024;-53
2021/06/18 08:21:07;;;;;;;10.55;4.13;;;30.80;59.60;;;30.13;40.59;100768.97;5072422;28;20485;-51
2021/06/18 08:23:33;;;;;;;7.43;4.10;;;30.90;59.90;;;30.10;40.80;100763.31;5072436;28;20231;-52
2021/06/18 08:25:59;;;;;;;7.80;2.90;;;30.90;59.60;;;30.63;39.88;100767.41;5072358;28;20062;-52
2021/06/18 08:28:26;;;;;;;3.38;2.20;;;31.30;59.30;;;30.81;39.20;100758.75;5089128;28;20032;-52
2021/06/18 08:30:52;;;;;;;3.40;2.15;;;31.40;59.00;;;30.50;40.13;100757.16;5090864;28;20364;-55
2021/06/18 08:33:18;;;;;;;3.45;2.20;;;31.40;59.20;;;30.14;40.87;100765.22;5090654;28;20028;-52
2021/06/18 08:35:45;;;;;;;3.63;1.95;;;30.90;59.40;;;30.11;40.39;100759.56;5072699;28;20056;-53
2021/06/18 08:38:11;;;;;;;5.10;1.98;;;30.80;59.20;;;30.26;40.44;100754.19;5090520;28;20020;-53
2021/06/18 08:40:37;;;;;;;7.10;2.25;;;30.80;59.70;;;30.69;39.32;100755.56;5090839;28;20040;-52
2021/06/18 08:43:05;;;;;;;2.67;2.40;;;31.20;59.30;;;31.08;38.03;100750.34;5090239;28;20044;-51
2021/06/18 08:45:32;;;;;;;5.20;2.63;;;31.50;58.40;;;31.15;38.49;100752.78;5090332;28;20043;-53
2021/06/18 08:47:58;;;;;;;2.60;2.08;;;31.70;58.30;;;30.86;38.79;100755.25;5090658;28;20393;-53
2021/06/18 08:50:26;;;;;;;2.50;1.85;;;31.60;58.10;;;31.75;37.65;100751.72;5090485;28;20047;-52
2021/06/18 08:52:58;;;;;;;2.60;1.63;;;32.00;58.00;;;31.28;37.78;100744.91;5089854;28;20040;-51
2021/06/18 08:55:32;;;;;;;3.83;2.17;;;32.10;57.20;;;30.61;39.28;100756.91;5090434;28;20164;-50
2021/06/18 08:58:03;;;;;;;2.63;1.90;;;31.50;57.70;;;30.17;39.93;100761.19;5090416;28;20478;-49
2021/06/18 09:00:31;;;;;;;2.58;1.52;;;31.00;58.60;;;30.26;39.02;100762.22;5071695;28;20376;-52
2021/06/18 09:02:57;;;;;;;3.58;1.75;;;30.90;58.00;;;30.49;38.37;100761.72;5089715;28;20032;-55
2021/06/18 09:05:24;;;;;;;2.35;1.65;;;31.10;57.70;;;31.15;36.89;100755.47;5089879;28;20671;-51
2021/06/18 09:08:02;;;;;;;2.65;1.13;;;31.60;56.80;;;31.77;35.12;100756.81;5090086;28;20087;-54
2021/06/18 09:10:42;;;;;;;3.42;1.40;;;32.10;55.30;;;31.42;35.10;100749.72;5102504;28;20039;-55
2021/06/18 09:13:16;;;;;;;2.67;1.13;;;32.10;53.80;;;31.55;33.39;100754.50;5082094;28;20078;-54
2021/06/18 09:15:54;;;;;;;4.35;1.27;;;32.10;53.10;;;31.31;32.43;100757.81;5071181;28;20510;-58
2021/06/18 09:18:30;;;;;;;3.38;1.27;;;31.90;50.20;;;31.32;33.21;100754.06;5071650;28;20123;-53
2021/06/18 09:21:21;;;;;;;5.97;2.92;;;31.80;52.70;;;31.96;32.51;100747.81;5079934;28;20055;-48
2021/06/18 09:23:55;;;;;;;3.13;1.45;;;32.20;52.30;;;32.07;32.42;100748.56;5068807;28;20570;-56
2021/06/18 09:26:34;;;;;;;6.10;1.55;;;32.60;51.10;;;30.93;33.70;100748.50;5087787;28;20031;-56
2021/06/18 09:29:18;;;;;;;5.13;2.42;;;31.80;52.30;;;30.92;35.18;100746.88;5089515;28;20590;-53
2021/06/18 09:32:01;;;;;;;4.05;1.48;;;31.50;53.60;;;31.25;34.48;100745.47;5070748;28;20040;-54
2021/06/18 09:34:46;;;;;;;5.30;1.50;;;31.60;53.80;;;31.85;34.36;100740.88;5089613;28;20032;-55
2021/06/18 09:37:21;;;;;;;4.53;1.88;;;32.00;53.80;;;31.85;33.85;100746.28;5071163;28;20039;-57
2021/06/18 09:40:16;;;;;;;3.55;2.22;;;32.20;52.90;;;31.36;33.76;100738.16;5089689;28;20040;-52
2021/06/18 09:42:48;;;;;;;2.20;1.60;;;32.00;52.30;;;30.84;34.73;100738.56;5070754;28;20071;-58
2021/06/18 09:45:21;;;;;;;3.58;1.83;;;31.40;53.50;;;31.06;34.58;100736.38;5089294;28;20036;-52
2021/06/18 09:47:48;;;;;;;3.22;1.63;;;31.40;53.50;;;31.34;34.69;100734.94;5089291;28;20502;-53
2021/06/18 09:50:14;;;;;;;3.50;2.65;;;31.60;53.80;;;31.18;35.53;100730.72;5088960;28;20438;-54
2021/06/18 09:52:41;;;;;;;2.50;2.05;;;31.50;54.40;;;31.31;35.60;100733.59;5089016;28;20075;-51
2021/06/18 09:55:17;;;;;;;2.42;2.22;;;31.50;55.20;;;31.16;36.03;100732.88;5088803;28;20043;-55
2021/06/18 09:57:43;;;;;;;3.95;1.90;;;31.40;56.00;;;31.28;35.97;100731.47;5089146;28;20120;-55
2021/06/18 10:00:17;;;;;;;3.40;2.20;;;31.60;55.00;;;30.81;36.12;100725.66;5088990;28;20036;-51
2021/06/18 10:02:49;;;;;;;2.83;1.90;;;31.30;54.40;;;30.87;36.36;100735.34;5088898;28;20119;-56
2021/06/18 10:05:24;;;;;;;3.63;2.50;;;31.20;55.60;;;30.95;36.15;100732.09;5088446;28;20464;-50
2021/06/18 10:07:53;;;;;;;6.82;1.85;;;31.30;55.70;;;30.93;37.08;100734.25;5088526;28;20047;-54
2021/06/18 10:10:29;;;;;;;3.70;2.47;;;31.30;56.50;;;31.66;36.53;100731.84;5088817;28;20044;-52
2021/06/18 10:12:56;;;;;;;2.72;2.30;;;31.60;56.60;;;32.16;35.11;100737.97;5088471;28;20482;-56
2021/06/18 10:15:26;;;;;;;6.32;2.30;;;32.30;55.60;;;32.30;35.73;100734.38;5070472;28;20287;-56
2021/06/18 10:17:55;;;;;;;2.58;2.10;;;32.50;55.50;;;32.29;35.28;100727.38;5088594;28;20334;-52
2021/06/18 10:20:30;;;;;;;3.95;2.40;;;32.60;54.90;;;31.34;36.31;100732.25;5088602;28;20176;-58
2021/06/18 10:23:12;;;;;;;5.20;1.67;;;32.20;54.40;;;31.92;36.47;100746.78;5088887;28;20039;-56
2021/06/18 10:25:43;;;;;;;4.57;1.70;;;32.20;55.70;;;31.73;35.77;100743.09;5069967;28;20432;-55